sensor_id;sensor_type;location;lat;lon;timestamp;temperature;humidity
9383;DHT22;4731;49.708;10.816;2022-09-12T00:00:44;12.50;99.90
9383;DHT22;4731;49.708;10.816;2022-09-12T00:03:11;14.50;99.90
9383;DHT22;4731;49.708;10.816;2022-09-12T00:05:40;12.50;99.90
9383;DHT22;4731;49.708;10.816;2022-09-12T00:08:07;12.60;99.90
9383;DHT22;4731;49.708;10.816;2022-09-12T00:10:36;12.50;99.90
9383;DHT22;4731;49.708;10.816;2022-09-12T00:13:05;12.60;99.90
9383;DHT22;4731;49.708;10.816;2022-09-12T00:15:37;14.20;99.90
9383;DHT22;4731;49.708;10.816;2022-09-12T00:18:04;12.50;99.90
9383;DHT22;4731;49.708;10.816;2022-09-12T00:20:31;12.60;99.90
9383;DHT22;4731;49.708;10.816;2022-09-12T00:22:57;12.50;99.90
9383;DHT22;4731;49.708;10.816;2022-09-12T00:25:24;14.00;99.90
9383;DHT22;4731;49.708;10.816;2022-09-12T00:27:51;12.60;99.90
9383;DHT22;4731;49.708;10.816;2022-09-12T00:30:19;12.60;99.90
9383;DHT22;4731;49.708;10.816;2022-09-12T00:32:46;12.50;99.90
9383;DHT22;4731;49.708;10.816;2022-09-12T00:35:13;12.50;99.90
9383;DHT22;4731;49.708;10.816;2022-09-12T00:37:40;12.60;99.90
9383;DHT22;4731;49.708;10.816;2022-09-12T00:40:07;12.60;99.90
9383;DHT22;4731;49.708;10.816;2022-09-12T00:42:34;12.60;99.90
9383;DHT22;4731;49.708;10.816;2022-09-12T00:45:01;13.20;99.90
9383;DHT22;4731;49.708;10.816;2022-09-12T00:47:30;15.30;99.90
9383;DHT22;4731;49.708;10.816;2022-09-12T00:50:02;12.60;99.90
9383;DHT22;4731;49.708;10.816;2022-09-12T00:52:33;12.60;99.90
9383;DHT22;4731;49.708;10.816;2022-09-12T00:55:05;12.60;99.90
9383;DHT22;4731;49.708;10.816;2022-09-12T00:57:36;12.60;99.90
9383;DHT22;4731;49.708;10.816;2022-09-12T01:00:07;12.70;99.90
9383;DHT22;4731;49.708;10.816;2022-09-12T01:02:39;12.60;99.90
9383;DHT22;4731;49.708;10.816;2022-09-12T01:05:07;12.60;99.90
9383;DHT22;4731;49.708;10.816;2022-09-12T01:07:35;12.60;99.90
9383;DHT22;4731;49.708;10.816;2022-09-12T01:10:02;14.30;99.90
9383;DHT22;4731;49.708;10.816;2022-09-12T01:12:30;11.70;99.90
9383;DHT22;4731;49.708;10.816;2022-09-12T01:14:57;12.50;99.90
9383;DHT22;4731;49.708;10.816;2022-09-12T01:17:29;12.50;99.90
9383;DHT22;4731;49.708;10.816;2022-09-12T01:20:25;12.50;99.90
9383;DHT22;4731;49.708;10.816;2022-09-12T01:26:14;12.20;99.90
9383;DHT22;4731;49.708;10.816;2022-09-12T01:29:01;13.60;99.90
9383;DHT22;4731;49.708;10.816;2022-09-12T01:31:36;12.20;99.90
9383;DHT22;4731;49.708;10.816;2022-09-12T01:34:13;12.00;99.90
9383;DHT22;4731;49.708;10.816;2022-09-12T01:36:50;12.10;99.90
9383;DHT22;4731;49.708;10.816;2022-09-12T01:39:27;11.90;99.90
9383;DHT22;4731;49.708;10.816;2022-09-12T01:42:05;11.90;99.90
9383;DHT22;4731;49.708;10.816;2022-09-12T01:44:41;11.80;99.90
9383;DHT22;4731;49.708;10.816;2022-09-12T01:47:17;11.70;99.90
9383;DHT22;4731;49.708;10.816;2022-09-12T01:49:51;13.80;99.90
9383;DHT22;4731;49.708;10.816;2022-09-12T01:52:24;11.80;99.90
9383;DHT22;4731;49.708;10.816;2022-09-12T01:54:56;12.00;99.90
9383;DHT22;4731;49.708;10.816;2022-09-12T01:57:28;12.00;99.90
9383;DHT22;4731;49.708;10.816;2022-09-12T02:00:00;11.80;99.90
9383;DHT22;4731;49.708;10.816;2022-09-12T02:02:34;11.70;99.90
9383;DHT22;4731;49.708;10.816;2022-09-12T02:05:05;11.70;99.90
9383;DHT22;4731;49.708;10.816;2022-09-12T02:07:37;11.80;99.90
9383;DHT22;4731;49.708;10.816;2022-09-12T02:10:09;11.70;99.90
9383;DHT22;4731;49.708;10.816;2022-09-12T02:12:40;11.60;99.90
9383;DHT22;4731;49.708;10.816;2022-09-12T02:15:10;11.70;99.90
9383;DHT22;4731;49.708;10.816;2022-09-12T02:17:42;11.80;99.90
9383;DHT22;4731;49.708;10.816;2022-09-12T02:20:13;11.80;99.90
9383;DHT22;4731;49.708;10.816;2022-09-12T02:22:43;11.80;99.90
9383;DHT22;4731;49.708;10.816;2022-09-12T02:25:12;11.70;99.90
9383;DHT22;4731;49.708;10.816;2022-09-12T02:27:44;11.70;99.90
9383;DHT22;4731;49.708;10.816;2022-09-12T02:30:12;11.70;99.90
9383;DHT22;4731;49.708;10.816;2022-09-12T02:32:50;11.70;99.90
9383;DHT22;4731;49.708;10.816;2022-09-12T02:35:24;11.70;99.90
9383;DHT22;4731;49.708;10.816;2022-09-12T02:37:59;11.70;99.90
9383;DHT22;4731;49.708;10.816;2022-09-12T02:40:28;12.90;99.90
9383;DHT22;4731;49.708;10.816;2022-09-12T02:42:56;11.70;99.90
9383;DHT22;4731;49.708;10.816;2022-09-12T02:45:23;11.70;99.90
9383;DHT22;4731;49.708;10.816;2022-09-12T02:47:55;11.70;99.90
9383;DHT22;4731;49.708;10.816;2022-09-12T02:50:23;11.70;99.90
9383;DHT22;4731;49.708;10.816;2022-09-12T02:52:50;11.70;99.90
9383;DHT22;4731;49.708;10.816;2022-09-12T02:55:18;11.70;99.90
9383;DHT22;4731;49.708;10.816;2022-09-12T02:57:45;11.60;99.90
9383;DHT22;4731;49.708;10.816;2022-09-12T03:00:13;11.50;99.90
9383;DHT22;4731;49.708;10.816;2022-09-12T03:03:06;11.60;99.90
9383;DHT22;4731;49.708;10.816;2022-09-12T03:05:39;11.50;99.90
9383;DHT22;4731;49.708;10.816;2022-09-12T03:08:24;11.50;99.90
9383;DHT22;4731;49.708;10.816;2022-09-12T03:14:10;11.50;99.90
9383;DHT22;4731;49.708;10.816;2022-09-12T03:16:45;11.60;99.90
9383;DHT22;4731;49.708;10.816;2022-09-12T03:19:24;11.40;99.90
9383;DHT22;4731;49.708;10.816;2022-09-12T03:22:02;11.40;99.90
9383;DHT22;4731;49.708;10.816;2022-09-12T03:24:35;11.40;99.90
9383;DHT22;4731;49.708;10.816;2022-09-12T03:27:09;11.40;99.90
9383;DHT22;4731;49.708;10.816;2022-09-12T03:29:38;11.40;99.90
9383;DHT22;4731;49.708;10.816;2022-09-12T03:32:06;11.40;99.90
9383;DHT22;4731;49.708;10.816;2022-09-12T03:34:34;11.50;99.90
9383;DHT22;4731;49.708;10.816;2022-09-12T03:37:01;11.50;99.90
9383;DHT22;4731;49.708;10.816;2022-09-12T03:39:28;11.50;99.90
9383;DHT22;4731;49.708;10.816;2022-09-12T03:41:55;11.50;99.90
9383;DHT22;4731;49.708;10.816;2022-09-12T03:44:22;11.40;99.90
9383;DHT22;4731;49.708;10.816;2022-09-12T03:46:49;11.40;99.90
9383;DHT22;4731;49.708;10.816;2022-09-12T03:49:16;11.50;99.90
9383;DHT22;4731;49.708;10.816;2022-09-12T03:51:44;11.40;99.90
9383;DHT22;4731;49.708;10.816;2022-09-12T03:54:11;11.40;99.90
9383;DHT22;4731;49.708;10.816;2022-09-12T03:56:38;11.40;99.90
9383;DHT22;4731;49.708;10.816;2022-09-12T03:59:06;11.30;99.90
9383;DHT22;4731;49.708;10.816;2022-09-12T04:01:33;11.30;99.90
9383;DHT22;4731;49.708;10.816;2022-09-12T04:04:00;12.50;99.90
9383;DHT22;4731;49.708;10.816;2022-09-12T04:06:27;11.40;99.90
9383;DHT22;4731;49.708;10.816;2022-09-12T04:08:55;11.40;99.90
9383;DHT22;4731;49.708;10.816;2022-09-12T04:11:23;11.50;99.90
9383;DHT22;4731;49.708;10.816;2022-09-12T04:13:49;11.50;99.90
9383;DHT22;4731;49.708;10.816;2022-09-12T04:16:16;11.50;99.90
9383;DHT22;4731;49.708;10.816;2022-09-12T04:18:44;11.40;99.90
9383;DHT22;4731;49.708;10.816;2022-09-12T04:21:13;11.50;99.90
9383;DHT22;4731;49.708;10.816;2022-09-12T04:23:40;11.60;99.90
9383;DHT22;4731;49.708;10.816;2022-09-12T04:26:08;11.60;99.90
9383;DHT22;4731;49.708;10.816;2022-09-12T04:28:36;11.60;99.90
9383;DHT22;4731;49.708;10.816;2022-09-12T04:31:05;14.40;99.90
9383;DHT22;4731;49.708;10.816;2022-09-12T04:33:32;11.60;99.90
9383;DHT22;4731;49.708;10.816;2022-09-12T04:36:03;11.50;99.90
9383;DHT22;4731;49.708;10.816;2022-09-12T04:38:31;11.50;99.90
9383;DHT22;4731;49.708;10.816;2022-09-12T04:40:57;11.60;99.90
9383;DHT22;4731;49.708;10.816;2022-09-12T04:43:26;11.50;99.90
9383;DHT22;4731;49.708;10.816;2022-09-12T04:45:52;11.50;99.90
9383;DHT22;4731;49.708;10.816;2022-09-12T04:48:19;11.50;99.90
9383;DHT22;4731;49.708;10.816;2022-09-12T04:50:46;11.60;99.90
9383;DHT22;4731;49.708;10.816;2022-09-12T04:53:13;11.50;99.90
9383;DHT22;4731;49.708;10.816;2022-09-12T04:55:39;11.50;99.90
9383;DHT22;4731;49.708;10.816;2022-09-12T04:58:06;11.30;99.90
9383;DHT22;4731;49.708;10.816;2022-09-12T05:00:34;11.40;99.90
9383;DHT22;4731;49.708;10.816;2022-09-12T05:03:01;11.40;99.90
9383;DHT22;4731;49.708;10.816;2022-09-12T05:05:28;11.20;99.90
9383;DHT22;4731;49.708;10.816;2022-09-12T05:07:55;11.20;99.90
9383;DHT22;4731;49.708;10.816;2022-09-12T05:10:21;11.20;99.90
9383;DHT22;4731;49.708;10.816;2022-09-12T05:12:48;11.20;99.90
9383;DHT22;4731;49.708;10.816;2022-09-12T05:15:15;11.20;99.90
9383;DHT22;4731;49.708;10.816;2022-09-12T05:17:43;11.30;99.90
9383;DHT22;4731;49.708;10.816;2022-09-12T05:20:11;11.30;99.90
9383;DHT22;4731;49.708;10.816;2022-09-12T05:22:38;11.40;99.90
9383;DHT22;4731;49.708;10.816;2022-09-12T05:25:06;11.40;99.90
9383;DHT22;4731;49.708;10.816;2022-09-12T05:27:33;11.50;99.90
9383;DHT22;4731;49.708;10.816;2022-09-12T05:30:01;11.60;99.90
9383;DHT22;4731;49.708;10.816;2022-09-12T05:32:30;11.50;99.90
9383;DHT22;4731;49.708;10.816;2022-09-12T05:34:58;11.50;99.90
9383;DHT22;4731;49.708;10.816;2022-09-12T05:37:25;11.50;99.90
9383;DHT22;4731;49.708;10.816;2022-09-12T05:39:52;11.40;99.90
9383;DHT22;4731;49.708;10.816;2022-09-12T05:44:45;11.50;99.90
9383;DHT22;4731;49.708;10.816;2022-09-12T05:49:41;11.70;99.90
9383;DHT22;4731;49.708;10.816;2022-09-12T05:52:10;11.70;99.90
9383;DHT22;4731;49.708;10.816;2022-09-12T05:54:37;11.80;99.90
9383;DHT22;4731;49.708;10.816;2022-09-12T05:57:05;11.90;99.90
9383;DHT22;4731;49.708;10.816;2022-09-12T05:59:32;11.90;99.90
9383;DHT22;4731;49.708;10.816;2022-09-12T06:01:59;11.90;99.90
9383;DHT22;4731;49.708;10.816;2022-09-12T06:04:25;11.90;99.90
9383;DHT22;4731;49.708;10.816;2022-09-12T06:06:52;11.90;99.90
9383;DHT22;4731;49.708;10.816;2022-09-12T06:09:21;13.50;99.90
9383;DHT22;4731;49.708;10.816;2022-09-12T06:11:49;12.00;99.90
9383;DHT22;4731;49.708;10.816;2022-09-12T06:14:17;12.00;99.90
9383;DHT22;4731;49.708;10.816;2022-09-12T06:16:44;12.20;99.90
9383;DHT22;4731;49.708;10.816;2022-09-12T06:19:13;12.10;99.90
9383;DHT22;4731;49.708;10.816;2022-09-12T06:21:40;12.20;99.90
9383;DHT22;4731;49.708;10.816;2022-09-12T06:24:07;12.50;99.90
9383;DHT22;4731;49.708;10.816;2022-09-12T06:26:36;12.30;99.90
9383;DHT22;4731;49.708;10.816;2022-09-12T06:29:03;12.10;99.90
9383;DHT22;4731;49.708;10.816;2022-09-12T06:31:32;15.00;99.90
9383;DHT22;4731;49.708;10.816;2022-09-12T06:34:00;11.70;99.90
9383;DHT22;4731;49.708;10.816;2022-09-12T06:36:28;15.20;99.90
9383;DHT22;4731;49.708;10.816;2022-09-12T06:38:57;12.00;99.90
9383;DHT22;4731;49.708;10.816;2022-09-12T06:41:25;12.10;99.90
9383;DHT22;4731;49.708;10.816;2022-09-12T06:43:54;12.20;99.90
9383;DHT22;4731;49.708;10.816;2022-09-12T06:46:21;12.10;99.90
9383;DHT22;4731;49.708;10.816;2022-09-12T06:48:48;12.30;99.90
9383;DHT22;4731;49.708;10.816;2022-09-12T06:51:16;12.20;99.90
9383;DHT22;4731;49.708;10.816;2022-09-12T06:53:44;12.30;99.90
9383;DHT22;4731;49.708;10.816;2022-09-12T06:56:13;13.70;99.90
9383;DHT22;4731;49.708;10.816;2022-09-12T06:58:41;12.40;99.90
9383;DHT22;4731;49.708;10.816;2022-09-12T07:01:11;12.50;99.90
9383;DHT22;4731;49.708;10.816;2022-09-12T07:03:40;12.20;99.90
9383;DHT22;4731;49.708;10.816;2022-09-12T07:06:08;12.40;99.90
9383;DHT22;4731;49.708;10.816;2022-09-12T07:08:36;12.20;99.90
9383;DHT22;4731;49.708;10.816;2022-09-12T07:11:11;12.10;99.90
9383;DHT22;4731;49.708;10.816;2022-09-12T07:13:38;11.90;99.90
9383;DHT22;4731;49.708;10.816;2022-09-12T07:16:06;11.90;99.90
9383;DHT22;4731;49.708;10.816;2022-09-12T07:18:35;11.70;99.90
9383;DHT22;4731;49.708;10.816;2022-09-12T07:21:04;11.70;99.90
9383;DHT22;4731;49.708;10.816;2022-09-12T07:23:31;11.90;99.90
9383;DHT22;4731;49.708;10.816;2022-09-12T07:25:59;14.90;99.90
9383;DHT22;4731;49.708;10.816;2022-09-12T07:28:28;12.20;99.90
9383;DHT22;4731;49.708;10.816;2022-09-12T07:30:55;12.20;99.90
9383;DHT22;4731;49.708;10.816;2022-09-12T07:33:23;12.50;99.90
9383;DHT22;4731;49.708;10.816;2022-09-12T07:35:52;12.60;99.90
9383;DHT22;4731;49.708;10.816;2022-09-12T07:38:19;12.70;99.90
9383;DHT22;4731;49.708;10.816;2022-09-12T07:40:46;12.60;99.90
9383;DHT22;4731;49.708;10.816;2022-09-12T07:43:12;12.40;99.90
9383;DHT22;4731;49.708;10.816;2022-09-12T07:45:39;12.60;99.90
9383;DHT22;4731;49.708;10.816;2022-09-12T07:48:07;14.90;99.90
9383;DHT22;4731;49.708;10.816;2022-09-12T07:50:34;12.70;99.90
9383;DHT22;4731;49.708;10.816;2022-09-12T07:53:02;12.80;99.90
9383;DHT22;4731;49.708;10.816;2022-09-12T07:55:29;12.90;99.90
9383;DHT22;4731;49.708;10.816;2022-09-12T07:57:56;15.10;99.90
9383;DHT22;4731;49.708;10.816;2022-09-12T08:00:23;13.10;99.90
9383;DHT22;4731;49.708;10.816;2022-09-12T08:02:51;13.10;99.90
9383;DHT22;4731;49.708;10.816;2022-09-12T08:05:19;13.10;99.90
9383;DHT22;4731;49.708;10.816;2022-09-12T08:07:46;13.40;99.90
9383;DHT22;4731;49.708;10.816;2022-09-12T08:10:15;13.10;99.90
9383;DHT22;4731;49.708;10.816;2022-09-12T08:12:42;13.00;99.90
9383;DHT22;4731;49.708;10.816;2022-09-12T08:15:09;13.00;99.90
9383;DHT22;4731;49.708;10.816;2022-09-12T08:17:36;13.20;99.90
9383;DHT22;4731;49.708;10.816;2022-09-12T08:20:03;13.20;99.90
9383;DHT22;4731;49.708;10.816;2022-09-12T08:27:25;13.40;99.90
9383;DHT22;4731;49.708;10.816;2022-09-12T08:29:52;13.40;99.90
9383;DHT22;4731;49.708;10.816;2022-09-12T08:32:19;13.50;99.90
9383;DHT22;4731;49.708;10.816;2022-09-12T08:34:46;13.60;99.90
9383;DHT22;4731;49.708;10.816;2022-09-12T08:37:13;13.80;99.90
9383;DHT22;4731;49.708;10.816;2022-09-12T08:39:40;16.10;99.90
9383;DHT22;4731;49.708;10.816;2022-09-12T08:42:09;15.50;99.90
9383;DHT22;4731;49.708;10.816;2022-09-12T08:47:28;14.50;99.90
9383;DHT22;4731;49.708;10.816;2022-09-12T08:50:02;15.10;99.90
9383;DHT22;4731;49.708;10.816;2022-09-12T08:52:34;15.30;99.90
9383;DHT22;4731;49.708;10.816;2022-09-12T08:55:02;15.60;99.90
9383;DHT22;4731;49.708;10.816;2022-09-12T08:57:31;15.50;99.90
9383;DHT22;4731;49.708;10.816;2022-09-12T09:00:02;15.60;99.90
9383;DHT22;4731;49.708;10.816;2022-09-12T09:02:58;15.60;99.90
9383;DHT22;4731;49.708;10.816;2022-09-12T09:05:41;16.10;99.90
9383;DHT22;4731;49.708;10.816;2022-09-12T09:08:45;16.80;99.90
9383;DHT22;4731;49.708;10.816;2022-09-12T09:11:34;16.90;99.90
9383;DHT22;4731;49.708;10.816;2022-09-12T09:14:12;17.70;99.90
9383;DHT22;4731;49.708;10.816;2022-09-12T09:17:02;17.30;99.90
9383;DHT22;4731;49.708;10.816;2022-09-12T09:19:38;17.80;99.90
9383;DHT22;4731;49.708;10.816;2022-09-12T09:22:11;18.20;99.90
9383;DHT22;4731;49.708;10.816;2022-09-12T09:24:42;18.30;99.90
9383;DHT22;4731;49.708;10.816;2022-09-12T09:27:14;18.60;99.90
9383;DHT22;4731;49.708;10.816;2022-09-12T09:29:47;19.00;99.90
9383;DHT22;4731;49.708;10.816;2022-09-12T09:32:24;19.40;99.90
9383;DHT22;4731;49.708;10.816;2022-09-12T09:34:51;20.00;99.90
9383;DHT22;4731;49.708;10.816;2022-09-12T09:37:20;20.60;99.90
9383;DHT22;4731;49.708;10.816;2022-09-12T09:39:57;21.90;99.90
9383;DHT22;4731;49.708;10.816;2022-09-12T09:42:33;22.60;99.90
9383;DHT22;4731;49.708;10.816;2022-09-12T09:45:12;22.60;99.90
9383;DHT22;4731;49.708;10.816;2022-09-12T09:47:40;24.40;99.90
9383;DHT22;4731;49.708;10.816;2022-09-12T09:50:12;26.70;99.90
9383;DHT22;4731;49.708;10.816;2022-09-12T09:52:41;28.20;99.90
9383;DHT22;4731;49.708;10.816;2022-09-12T09:55:12;28.80;99.90
9383;DHT22;4731;49.708;10.816;2022-09-12T09:57:43;30.40;99.90
9383;DHT22;4731;49.708;10.816;2022-09-12T10:00:30;31.30;99.90
9383;DHT22;4731;49.708;10.816;2022-09-12T10:03:23;32.20;99.90
9383;DHT22;4731;49.708;10.816;2022-09-12T10:05:52;33.30;99.90
9383;DHT22;4731;49.708;10.816;2022-09-12T10:08:21;34.50;99.90
9383;DHT22;4731;49.708;10.816;2022-09-12T10:10:57;35.20;99.90
9383;DHT22;4731;49.708;10.816;2022-09-12T10:13:30;36.00;99.90
9383;DHT22;4731;49.708;10.816;2022-09-12T10:15:59;36.40;99.90
9383;DHT22;4731;49.708;10.816;2022-09-12T10:18:37;36.50;99.90
9383;DHT22;4731;49.708;10.816;2022-09-12T10:21:22;36.50;97.90
9383;DHT22;4731;49.708;10.816;2022-09-12T10:23:58;35.20;98.50
9383;DHT22;4731;49.708;10.816;2022-09-12T10:26:31;35.50;98.40
9383;DHT22;4731;49.708;10.816;2022-09-12T10:29:03;35.90;98.70
9383;DHT22;4731;49.708;10.816;2022-09-12T10:31:39;36.30;97.80
9383;DHT22;4731;49.708;10.816;2022-09-12T10:34:20;37.00;96.20
9383;DHT22;4731;49.708;10.816;2022-09-12T10:36:48;38.00;94.20
9383;DHT22;4731;49.708;10.816;2022-09-12T10:39:18;38.20;92.10
9383;DHT22;4731;49.708;10.816;2022-09-12T10:41:46;37.50;93.30
9383;DHT22;4731;49.708;10.816;2022-09-12T10:44:15;37.00;92.70
9383;DHT22;4731;49.708;10.816;2022-09-12T10:46:42;36.80;93.30
9383;DHT22;4731;49.708;10.816;2022-09-12T10:49:29;36.80;93.20
9383;DHT22;4731;49.708;10.816;2022-09-12T10:52:14;37.20;92.00
9383;DHT22;4731;49.708;10.816;2022-09-12T10:54:42;37.80;91.00
9383;DHT22;4731;49.708;10.816;2022-09-12T10:57:31;38.00;91.40
9383;DHT22;4731;49.708;10.816;2022-09-12T11:00:08;38.50;88.40
9383;DHT22;4731;49.708;10.816;2022-09-12T11:02:50;38.10;89.40
9383;DHT22;4731;49.708;10.816;2022-09-12T11:05:43;37.80;86.00
9383;DHT22;4731;49.708;10.816;2022-09-12T11:08:22;36.80;87.50
9383;DHT22;4731;49.708;10.816;2022-09-12T11:10:54;36.20;89.90
9383;DHT22;4731;49.708;10.816;2022-09-12T11:13:31;35.90;90.30
9383;DHT22;4731;49.708;10.816;2022-09-12T11:16:18;33.90;91.80
9383;DHT22;4731;49.708;10.816;2022-09-12T11:19:02;31.30;94.00
9383;DHT22;4731;49.708;10.816;2022-09-12T11:21:48;31.50;96.20
9383;DHT22;4731;49.708;10.816;2022-09-12T11:24:28;32.10;95.10
9383;DHT22;4731;49.708;10.816;2022-09-12T11:29:50;34.90;92.60
9383;DHT22;4731;49.708;10.816;2022-09-12T11:32:42;34.90;92.40
9383;DHT22;4731;49.708;10.816;2022-09-12T11:35:19;34.60;92.20
9383;DHT22;4731;49.708;10.816;2022-09-12T11:38:13;33.40;91.80
9383;DHT22;4731;49.708;10.816;2022-09-12T11:40:48;32.70;93.40
9383;DHT22;4731;49.708;10.816;2022-09-12T11:43:24;32.20;93.20
9383;DHT22;4731;49.708;10.816;2022-09-12T11:45:53;32.60;92.90
9383;DHT22;4731;49.708;10.816;2022-09-12T11:48:34;31.70;91.90
9383;DHT22;4731;49.708;10.816;2022-09-12T11:51:23;30.60;91.90
9383;DHT22;4731;49.708;10.816;2022-09-12T11:54:01;29.30;92.70
9383;DHT22;4731;49.708;10.816;2022-09-12T11:56:28;29.50;93.30
9383;DHT22;4731;49.708;10.816;2022-09-12T11:59:02;29.70;94.30
9383;DHT22;4731;49.708;10.816;2022-09-12T12:01:33;29.90;94.00
9383;DHT22;4731;49.708;10.816;2022-09-12T12:04:07;30.40;94.60
9383;DHT22;4731;49.708;10.816;2022-09-12T12:06:46;31.60;94.10
9383;DHT22;4731;49.708;10.816;2022-09-12T12:09:15;32.70;92.60
9383;DHT22;4731;49.708;10.816;2022-09-12T12:11:46;33.00;91.80
9383;DHT22;4731;49.708;10.816;2022-09-12T12:14:16;32.30;91.20
9383;DHT22;4731;49.708;10.816;2022-09-12T12:16:44;31.40;91.10
9383;DHT22;4731;49.708;10.816;2022-09-12T12:19:30;31.20;93.50
9383;DHT22;4731;49.708;10.816;2022-09-12T12:22:05;30.90;93.50
9383;DHT22;4731;49.708;10.816;2022-09-12T12:24:53;31.00;93.80
9383;DHT22;4731;49.708;10.816;2022-09-12T12:27:24;30.60;94.00
9383;DHT22;4731;49.708;10.816;2022-09-12T12:34:03;27.80;97.40
9383;DHT22;4731;49.708;10.816;2022-09-12T12:36:35;27.80;98.30
9383;DHT22;4731;49.708;10.816;2022-09-12T12:42:04;27.90;99.60
9383;DHT22;4731;49.708;10.816;2022-09-12T12:44:48;27.80;98.10
9383;DHT22;4731;49.708;10.816;2022-09-12T12:47:17;28.40;99.00
9383;DHT22;4731;49.708;10.816;2022-09-12T12:49:49;29.10;98.50
9383;DHT22;4731;49.708;10.816;2022-09-12T12:52:17;28.60;99.30
9383;DHT22;4731;49.708;10.816;2022-09-12T12:54:50;28.60;97.60
9383;DHT22;4731;49.708;10.816;2022-09-12T12:57:25;28.10;98.40
9383;DHT22;4731;49.708;10.816;2022-09-12T12:59:55;27.50;99.90
9383;DHT22;4731;49.708;10.816;2022-09-12T13:02:27;27.40;99.60
9383;DHT22;4731;49.708;10.816;2022-09-12T13:04:58;27.10;99.90
9383;DHT22;4731;49.708;10.816;2022-09-12T13:07:30;27.40;99.90
9383;DHT22;4731;49.708;10.816;2022-09-12T13:09:59;28.10;99.90
9383;DHT22;4731;49.708;10.816;2022-09-12T13:12:30;26.60;99.90
9383;DHT22;4731;49.708;10.816;2022-09-12T13:14:58;26.60;99.90
9383;DHT22;4731;49.708;10.816;2022-09-12T13:17:32;26.30;99.90
9383;DHT22;4731;49.708;10.816;2022-09-12T13:20:20;25.90;99.90
9383;DHT22;4731;49.708;10.816;2022-09-12T13:22:50;26.10;99.90
9383;DHT22;4731;49.708;10.816;2022-09-12T13:25:21;25.90;99.90
9383;DHT22;4731;49.708;10.816;2022-09-12T13:28:03;25.50;99.90
9383;DHT22;4731;49.708;10.816;2022-09-12T13:30:33;26.10;99.90
9383;DHT22;4731;49.708;10.816;2022-09-12T13:33:10;26.40;99.90
9383;DHT22;4731;49.708;10.816;2022-09-12T13:35:56;26.40;99.90
9383;DHT22;4731;49.708;10.816;2022-09-12T13:38:35;25.80;99.90
9383;DHT22;4731;49.708;10.816;2022-09-12T13:41:24;26.20;99.90
9383;DHT22;4731;49.708;10.816;2022-09-12T13:43:58;26.50;99.90
9383;DHT22;4731;49.708;10.816;2022-09-12T13:46:29;26.90;99.90
9383;DHT22;4731;49.708;10.816;2022-09-12T13:49:05;25.80;99.90
9383;DHT22;4731;49.708;10.816;2022-09-12T13:51:33;26.10;99.90
9383;DHT22;4731;49.708;10.816;2022-09-12T13:54:04;26.20;99.90
9383;DHT22;4731;49.708;10.816;2022-09-12T13:56:45;25.10;99.90
9383;DHT22;4731;49.708;10.816;2022-09-12T13:59:15;24.20;99.90
9383;DHT22;4731;49.708;10.816;2022-09-12T14:01:43;23.90;99.90
9383;DHT22;4731;49.708;10.816;2022-09-12T14:04:15;24.30;99.90
9383;DHT22;4731;49.708;10.816;2022-09-12T14:07:01;24.80;99.90
9383;DHT22;4731;49.708;10.816;2022-09-12T14:09:31;24.60;99.90
9383;DHT22;4731;49.708;10.816;2022-09-12T14:12:00;25.00;99.90
9383;DHT22;4731;49.708;10.816;2022-09-12T14:14:32;25.90;99.90
9383;DHT22;4731;49.708;10.816;2022-09-12T14:17:00;26.30;99.90
9383;DHT22;4731;49.708;10.816;2022-09-12T14:19:27;25.60;99.90
9383;DHT22;4731;49.708;10.816;2022-09-12T14:21:55;25.90;99.90
9383;DHT22;4731;49.708;10.816;2022-09-12T14:24:23;25.80;99.90
9383;DHT22;4731;49.708;10.816;2022-09-12T14:26:52;26.20;99.90
9383;DHT22;4731;49.708;10.816;2022-09-12T14:29:21;26.60;99.90
9383;DHT22;4731;49.708;10.816;2022-09-12T14:32:01;25.80;99.90
9383;DHT22;4731;49.708;10.816;2022-09-12T14:34:28;24.60;99.90
9383;DHT22;4731;49.708;10.816;2022-09-12T14:36:56;24.80;99.90
9383;DHT22;4731;49.708;10.816;2022-09-12T14:39:29;25.20;99.90
9383;DHT22;4731;49.708;10.816;2022-09-12T14:42:03;25.10;99.90
9383;DHT22;4731;49.708;10.816;2022-09-12T14:44:32;24.80;99.90
9383;DHT22;4731;49.708;10.816;2022-09-12T14:47:12;24.80;99.90
9383;DHT22;4731;49.708;10.816;2022-09-12T14:49:40;24.10;99.90
9383;DHT22;4731;49.708;10.816;2022-09-12T14:52:22;24.90;99.90
9383;DHT22;4731;49.708;10.816;2022-09-12T14:54:58;25.20;99.90
9383;DHT22;4731;49.708;10.816;2022-09-12T14:57:34;24.90;99.90
9383;DHT22;4731;49.708;10.816;2022-09-12T15:00:21;24.60;99.90
9383;DHT22;4731;49.708;10.816;2022-09-12T15:02:51;23.50;99.90
9383;DHT22;4731;49.708;10.816;2022-09-12T15:05:26;23.30;99.90
9383;DHT22;4731;49.708;10.816;2022-09-12T15:07:58;24.00;99.90
9383;DHT22;4731;49.708;10.816;2022-09-12T15:10:28;21.60;99.90
9383;DHT22;4731;49.708;10.816;2022-09-12T15:13:16;24.00;99.90
9383;DHT22;4731;49.708;10.816;2022-09-12T15:15:45;23.70;99.90
9383;DHT22;4731;49.708;10.816;2022-09-12T15:18:13;23.60;99.90
9383;DHT22;4731;49.708;10.816;2022-09-12T15:20:42;23.30;99.90
9383;DHT22;4731;49.708;10.816;2022-09-12T15:23:17;23.10;99.90
9383;DHT22;4731;49.708;10.816;2022-09-12T15:25:44;23.30;99.90
9383;DHT22;4731;49.708;10.816;2022-09-12T15:28:17;23.20;99.90
9383;DHT22;4731;49.708;10.816;2022-09-12T15:30:45;22.80;99.90
9383;DHT22;4731;49.708;10.816;2022-09-12T15:33:15;22.50;99.90
9383;DHT22;4731;49.708;10.816;2022-09-12T15:35:42;22.40;99.90
9383;DHT22;4731;49.708;10.816;2022-09-12T15:38:09;22.30;99.90
9383;DHT22;4731;49.708;10.816;2022-09-12T15:40:37;22.50;99.90
9383;DHT22;4731;49.708;10.816;2022-09-12T15:43:04;22.60;99.90
9383;DHT22;4731;49.708;10.816;2022-09-12T15:45:32;22.30;99.90
9383;DHT22;4731;49.708;10.816;2022-09-12T15:48:00;22.00;99.90
9383;DHT22;4731;49.708;10.816;2022-09-12T15:50:29;22.20;99.90
9383;DHT22;4731;49.708;10.816;2022-09-12T15:52:57;22.00;99.90
9383;DHT22;4731;49.708;10.816;2022-09-12T15:55:26;22.20;99.90
9383;DHT22;4731;49.708;10.816;2022-09-12T15:57:53;22.30;99.90
9383;DHT22;4731;49.708;10.816;2022-09-12T16:00:20;22.40;99.90
9383;DHT22;4731;49.708;10.816;2022-09-12T16:02:49;22.30;99.90
9383;DHT22;4731;49.708;10.816;2022-09-12T16:05:18;22.10;99.90
9383;DHT22;4731;49.708;10.816;2022-09-12T16:07:46;21.90;99.90
9383;DHT22;4731;49.708;10.816;2022-09-12T16:10:17;21.80;99.90
9383;DHT22;4731;49.708;10.816;2022-09-12T16:12:45;21.80;99.90
9383;DHT22;4731;49.708;10.816;2022-09-12T16:15:13;21.90;99.90
9383;DHT22;4731;49.708;10.816;2022-09-12T16:17:42;22.90;99.90
9383;DHT22;4731;49.708;10.816;2022-09-12T16:20:09;22.00;99.90
9383;DHT22;4731;49.708;10.816;2022-09-12T16:22:36;21.70;99.90
9383;DHT22;4731;49.708;10.816;2022-09-12T16:25:05;21.70;99.90
9383;DHT22;4731;49.708;10.816;2022-09-12T16:27:34;21.70;99.90
9383;DHT22;4731;49.708;10.816;2022-09-12T16:30:01;21.60;99.90
9383;DHT22;4731;49.708;10.816;2022-09-12T16:32:28;21.50;99.90
9383;DHT22;4731;49.708;10.816;2022-09-12T16:34:54;23.30;99.90
9383;DHT22;4731;49.708;10.816;2022-09-12T16:37:21;21.30;99.90
9383;DHT22;4731;49.708;10.816;2022-09-12T16:39:48;21.40;99.90